createdAt,value
2019-04-20T00:00:02.698Z,14.00
2019-04-20T00:30:28.785Z,13.70
2019-04-20T01:00:29.929Z,13.50
2019-04-20T01:30:25.183Z,13.30
2019-04-20T02:00:44.033Z,12.80
2019-04-20T02:31:24.831Z,11.90
2019-04-20T03:01:20.178Z,11.40
2019-04-20T04:02:06.292Z,10.30
2019-04-20T04:31:50.764Z,10.20
2019-04-20T05:01:33.568Z,10.30
2019-04-20T05:31:43.423Z,10.50
2019-04-20T06:02:08.034Z,11.50
2019-04-20T06:32:15.720Z,14.20
2019-04-20T07:02:22.231Z,18.90
2019-04-20T07:32:09.937Z,26.80
2019-04-20T08:02:46.889Z,34.10
2019-04-20T08:32:38.926Z,35.60
2019-04-20T09:02:26.343Z,34.70
2019-04-20T09:32:56.694Z,35.00
2019-04-20T10:02:48.353Z,32.40
2019-04-20T10:32:54.136Z,25.80
2019-04-20T11:02:59.619Z,23.60
2019-04-20T11:33:04.406Z,23.30
2019-04-20T12:03:20.694Z,22.40
2019-04-20T12:33:15.713Z,21.90
2019-04-20T13:03:19.655Z,21.50
2019-04-20T13:33:24.950Z,21.50
2019-04-20T14:03:32.221Z,21.10
2019-04-20T14:33:37.018Z,20.80
2019-04-20T15:03:42.115Z,20.50
2019-04-20T15:33:46.696Z,20.40
2019-04-20T16:03:53.147Z,20.00
2019-04-20T16:33:58.761Z,19.70
2019-04-20T17:04:07.851Z,19.20
2019-04-20T17:34:28.367Z,18.70
2019-04-20T18:04:57.484Z,18.10
2019-04-20T18:34:38.129Z,17.50
2019-04-20T19:04:42.085Z,16.80
2019-04-20T19:34:57.577Z,16.30
2019-04-20T20:04:58.405Z,15.90
2019-04-20T20:35:05.567Z,15.40
2019-04-20T21:05:03.830Z,14.90
2019-04-20T21:35:11.121Z,14.60
2019-04-20T22:05:13.723Z,14.30
2019-04-20T22:35:19.232Z,13.90
2019-04-20T23:05:24.656Z,13.30
2019-04-20T23:35:29.951Z,12.50
